createdAt,value
2022-11-13T00:00:23.330Z,101169.98
2022-11-13T00:03:47.279Z,101169.18
2022-11-13T00:07:04.034Z,101170.94
2022-11-13T00:10:28.403Z,101168.38
2022-11-13T00:13:52.118Z,101165.44
2022-11-13T00:17:16.611Z,101158.66
2022-11-13T00:20:40.792Z,101151.17
2022-11-13T00:24:04.515Z,101147.66
2022-11-13T00:27:28.678Z,101152.19
2022-11-13T00:30:52.022Z,101146.15
2022-11-13T00:37:42.807Z,101135.39
2022-11-13T00:41:06.515Z,101123.73
2022-11-13T00:44:30.107Z,101133.95
2022-11-13T00:47:47.656Z,101126.09
2022-11-13T00:50:58.024Z,101130.12
2022-11-13T00:54:20.971Z,101125.13
2022-11-13T00:57:44.885Z,101116.53
2022-11-13T01:01:08.644Z,101119.32
2022-11-13T01:04:35.239Z,101118.52
2022-11-13T01:07:52.582Z,101117.60
2022-11-13T01:11:26.609Z,101103.95
2022-11-13T01:14:50.196Z,101112.42
2022-11-13T01:18:13.788Z,101105.64
2022-11-13T01:21:40.292Z,101104.63
2022-11-13T01:25:04.305Z,101097.61
2022-11-13T01:28:28.870Z,101098.49
2022-11-13T01:31:53.041Z,101091.00
2022-11-13T01:35:16.126Z,101084.89
2022-11-13T01:38:39.801Z,101083.84
2022-11-13T01:42:04.195Z,101082.52
2022-11-13T01:46:15.696Z,101077.73
2022-11-13T01:49:51.251Z,101079.92
2022-11-13T01:53:15.081Z,101083.07
2022-11-13T01:56:38.720Z,101077.79
2022-11-13T02:00:06.404Z,101076.09
2022-11-13T02:03:30.503Z,101071.80
2022-11-13T02:07:12.027Z,101081.00
2022-11-13T02:10:36.117Z,101081.06
2022-11-13T02:14:00.391Z,101076.20
2022-11-13T02:17:32.091Z,101081.64
2022-11-13T02:21:35.948Z,101091.29
2022-11-13T02:25:00.593Z,101088.17
2022-11-13T02:28:25.988Z,101081.95
2022-11-13T02:31:48.832Z,101090.84
2022-11-13T02:35:12.116Z,101081.19
2022-11-13T02:38:35.165Z,101081.57
2022-11-13T02:41:58.939Z,101088.88
2022-11-13T02:45:24.133Z,101084.69
2022-11-13T02:48:46.922Z,101079.88
2022-11-13T02:52:10.670Z,101073.41
2022-11-13T02:55:35.161Z,101083.96
2022-11-13T02:58:59.155Z,101075.61
2022-11-13T03:02:23.899Z,101076.36
2022-11-13T03:05:48.599Z,101072.03
2022-11-13T03:09:12.302Z,101070.83
2022-11-13T03:12:36.083Z,101075.34
2022-11-13T03:16:00.202Z,101076.55
2022-11-13T03:19:23.794Z,101067.77
2022-11-13T03:22:47.619Z,101064.30
2022-11-13T03:26:11.291Z,101061.96
2022-11-13T03:29:35.079Z,101055.88
2022-11-13T03:32:59.236Z,101058.83
2022-11-13T03:36:23.127Z,101061.38
2022-11-13T03:39:32.902Z,101054.93
2022-11-13T03:42:51.166Z,101054.69
2022-11-13T03:46:15.105Z,101051.67
2022-11-13T03:49:39.615Z,101044.85
2022-11-13T03:53:04.010Z,101043.42
2022-11-13T03:56:27.605Z,101043.91
2022-11-13T03:59:50.119Z,101051.58
2022-11-13T04:03:15.208Z,101051.52
2022-11-13T04:06:38.535Z,101045.49
2022-11-13T04:10:02.735Z,101034.31
2022-11-13T04:13:26.138Z,101035.52
2022-11-13T04:16:50.357Z,101037.84
2022-11-13T04:20:14.188Z,101036.28
2022-11-13T04:23:38.678Z,101032.86
2022-11-13T04:27:02.048Z,101042.06
2022-11-13T04:30:20.190Z,101042.62
2022-11-13T04:33:42.648Z,101039.70
2022-11-13T04:37:06.964Z,101039.22
2022-11-13T04:40:30.305Z,101030.63
2022-11-13T04:43:54.667Z,101037.24
2022-11-13T04:47:19.400Z,101046.56
2022-11-13T04:50:43.014Z,101047.82
2022-11-13T04:54:06.046Z,101045.44
2022-11-13T04:57:30.979Z,101042.92
2022-11-13T05:00:55.291Z,101043.10
2022-11-13T05:04:17.783Z,101041.09
2022-11-13T05:07:42.011Z,101036.95
2022-11-13T05:11:05.276Z,101036.87
2022-11-13T05:14:21.471Z,101034.44
2022-11-13T05:17:24.865Z,101042.40
2022-11-13T05:20:49.322Z,101037.45
2022-11-13T05:24:12.582Z,101040.93
2022-11-13T05:27:36.811Z,101054.11
2022-11-13T05:31:01.228Z,101045.03
2022-11-13T05:34:18.091Z,101048.44
2022-11-13T05:37:22.080Z,101050.09
2022-11-13T05:40:32.086Z,101057.03
2022-11-13T05:43:36.064Z,101059.88
2022-11-13T05:46:47.291Z,101051.84
2022-11-13T05:49:51.307Z,101053.38
2022-11-13T05:53:02.331Z,101055.66
2022-11-13T05:56:24.500Z,101059.23
2022-11-13T05:59:47.883Z,101054.66
2022-11-13T06:03:10.592Z,101058.54
2022-11-13T06:06:34.696Z,101065.60
2022-11-13T06:09:57.502Z,101059.48
2022-11-13T06:13:21.264Z,101059.11
2022-11-13T06:16:51.260Z,101053.55
2022-11-13T06:20:15.034Z,101051.94
2022-11-13T06:23:39.021Z,101050.44
2022-11-13T06:27:02.130Z,101055.85
2022-11-13T06:30:26.452Z,101046.73
2022-11-13T06:33:49.919Z,101040.27
2022-11-13T06:37:14.401Z,101038.69
2022-11-13T06:40:38.406Z,101039.67
2022-11-13T06:44:03.264Z,101037.92
2022-11-13T06:47:20.825Z,101032.27
2022-11-13T06:50:31.783Z,101040.98
2022-11-13T06:53:55.672Z,101036.54
2022-11-13T06:57:19.701Z,101038.59
2022-11-13T07:00:44.060Z,101032.30
2022-11-13T07:04:07.561Z,101026.84
2022-11-13T07:07:30.486Z,101032.95
2022-11-13T07:10:54.350Z,101038.03
2022-11-13T07:14:19.669Z,101034.87
2022-11-13T07:17:43.960Z,101033.23
2022-11-13T07:21:08.305Z,101026.77
2022-11-13T07:24:31.689Z,101026.64
2022-11-13T07:28:00.677Z,101019.79
2022-11-13T07:31:24.529Z,101022.44
2022-11-13T07:34:41.319Z,101019.09
2022-11-13T07:37:59.053Z,101022.00
2022-11-13T07:41:22.602Z,101026.97
2022-11-13T07:44:54.685Z,101021.38
2022-11-13T07:48:16.264Z,101012.38
2022-11-13T07:51:39.562Z,101014.67
2022-11-13T07:55:04.237Z,101014.32
2022-11-13T07:58:27.641Z,101009.26
2022-11-13T08:01:52.091Z,101015.95
2022-11-13T08:05:14.691Z,101017.69
2022-11-13T08:08:38.077Z,101016.14
2022-11-13T08:12:01.209Z,101019.92
2022-11-13T08:15:26.052Z,101018.01
2022-11-13T08:18:50.012Z,101020.11
2022-11-13T08:22:13.783Z,101014.80
2022-11-13T08:25:39.482Z,101021.48
2022-11-13T08:29:04.162Z,101019.23
2022-11-13T08:32:33.571Z,101014.11
2022-11-13T08:35:56.476Z,101016.00
2022-11-13T08:39:20.065Z,101022.17
2022-11-13T08:42:36.593Z,101012.40
2022-11-13T08:46:02.434Z,101003.33
2022-11-13T08:49:25.396Z,101015.47
2022-11-13T08:52:48.009Z,101004.17
2022-11-13T08:56:12.399Z,101006.94
2022-11-13T08:59:36.642Z,100994.23
2022-11-13T09:02:59.841Z,100994.58
2022-11-13T09:06:24.079Z,100990.46
2022-11-13T09:09:48.739Z,100982.23
2022-11-13T09:13:16.905Z,100989.11
2022-11-13T09:16:41.126Z,100988.06
2022-11-13T09:20:06.078Z,100997.62
2022-11-13T09:23:29.167Z,100983.44
2022-11-13T09:26:53.301Z,100973.16
2022-11-13T09:30:17.126Z,100979.20
2022-11-13T09:33:41.467Z,100970.55
2022-11-13T09:37:05.548Z,100977.87
2022-11-13T09:40:33.426Z,100976.37
2022-11-13T09:44:10.747Z,100979.83
2022-11-13T09:47:59.230Z,100965.78
2022-11-13T09:51:29.563Z,100959.27
2022-11-13T09:54:53.773Z,100957.72
2022-11-13T09:58:30.878Z,100962.02
2022-11-13T10:02:34.222Z,100951.38
2022-11-13T10:06:17.001Z,100961.13
2022-11-13T10:09:52.228Z,100958.75
2022-11-13T10:13:11.471Z,100952.75
2022-11-13T10:16:56.276Z,100945.52
2022-11-13T10:20:30.021Z,100956.25
2022-11-13T10:23:54.206Z,100958.52
2022-11-13T10:27:20.832Z,100956.63
2022-11-13T10:30:44.303Z,100954.02
2022-11-13T10:34:09.055Z,100951.72
2022-11-13T10:38:07.538Z,100958.78
2022-11-13T10:41:29.000Z,100956.56
2022-11-13T10:44:53.113Z,100937.12
2022-11-13T10:48:16.635Z,100944.01
2022-11-13T10:51:45.734Z,100945.36
2022-11-13T10:55:46.380Z,100937.03
2022-11-13T10:59:30.200Z,100939.48
2022-11-13T11:02:53.549Z,100937.50
2022-11-13T11:06:19.434Z,100940.56
2022-11-13T11:09:46.495Z,100929.47
2022-11-13T11:13:14.494Z,100920.77
2022-11-13T11:16:38.876Z,100916.33
2022-11-13T11:20:10.200Z,100906.47
2022-11-13T11:24:08.567Z,100919.08
2022-11-13T11:27:47.351Z,100912.30
2022-11-13T11:31:33.697Z,100893.80
2022-11-13T11:35:18.145Z,100905.19
2022-11-13T11:38:54.763Z,100904.14
2022-11-13T11:42:25.669Z,100890.50
2022-11-13T11:45:45.217Z,100892.48
2022-11-13T11:48:55.326Z,100888.94
2022-11-13T11:52:34.777Z,100881.27
2022-11-13T11:56:27.428Z,100883.16
2022-11-13T12:00:26.735Z,100885.08
2022-11-13T12:04:20.725Z,100879.31
2022-11-13T12:08:16.573Z,100870.69
2022-11-13T12:11:52.620Z,100869.51
2022-11-13T12:15:26.607Z,100866.38
2022-11-13T12:18:51.433Z,100872.58
2022-11-13T12:22:38.907Z,100869.00
2022-11-13T12:26:22.946Z,100868.27
2022-11-13T12:30:20.276Z,100864.55
2022-11-13T12:34:01.475Z,100862.12
2022-11-13T12:37:26.026Z,100860.91
2022-11-13T12:40:48.841Z,100850.77
2022-11-13T12:44:16.725Z,100851.47
2022-11-13T12:47:40.689Z,100846.30
2022-11-13T12:51:24.232Z,100851.87
2022-11-13T12:54:50.812Z,100851.56
2022-11-13T12:58:41.013Z,100857.70
2022-11-13T13:02:27.311Z,100857.53
2022-11-13T13:06:21.195Z,100853.98
2022-11-13T13:10:18.264Z,100857.70
2022-11-13T13:13:52.432Z,100843.66
2022-11-13T13:17:34.320Z,100850.34
2022-11-13T13:21:15.464Z,100842.29
2022-11-13T13:24:49.211Z,100846.40
2022-11-13T13:28:26.834Z,100854.98
2022-11-13T13:31:55.729Z,100855.88
2022-11-13T13:35:33.859Z,100857.77
2022-11-13T13:39:12.201Z,100857.41
2022-11-13T13:42:48.374Z,100858.64
2022-11-13T13:46:33.545Z,100855.23
2022-11-13T13:49:57.898Z,100851.30
2022-11-13T13:53:20.835Z,100857.48
2022-11-13T13:56:44.466Z,100851.80
2022-11-13T14:00:08.361Z,100854.69
2022-11-13T14:03:29.834Z,100861.72
2022-11-13T14:06:33.552Z,100859.88
2022-11-13T14:09:43.517Z,100870.84
2022-11-13T14:13:07.779Z,100868.05
2022-11-13T14:16:30.497Z,100866.17
2022-11-13T14:19:54.649Z,100859.80
2022-11-13T14:23:19.118Z,100875.38
2022-11-13T14:26:42.208Z,100867.70
2022-11-13T14:30:08.380Z,100865.05
2022-11-13T14:33:34.716Z,100860.20
2022-11-13T14:37:00.272Z,100852.22
2022-11-13T14:40:44.267Z,100856.18
2022-11-13T14:44:08.398Z,100857.02
2022-11-13T14:47:43.756Z,100865.36
2022-11-13T14:51:15.170Z,100870.82
2022-11-13T14:55:18.853Z,100865.19
2022-11-13T14:58:14.754Z,100859.95
2022-11-13T15:01:40.635Z,100864.20
2022-11-13T15:05:04.335Z,100864.29
2022-11-13T15:08:21.613Z,100869.15
2022-11-13T15:11:47.687Z,100875.57
2022-11-13T15:15:11.432Z,100873.38
2022-11-13T15:18:36.711Z,100872.89
2022-11-13T15:22:31.806Z,100869.09
2022-11-13T15:25:34.913Z,100874.23
2022-11-13T15:28:59.185Z,100871.27
2022-11-13T15:32:20.842Z,100872.47
2022-11-13T15:35:25.558Z,100875.48
2022-11-13T15:38:35.541Z,100878.81
2022-11-13T15:41:45.126Z,100880.35
2022-11-13T15:45:03.207Z,100886.36
2022-11-13T15:48:26.174Z,100892.11
2022-11-13T15:51:50.571Z,100883.39
2022-11-13T15:55:01.967Z,100888.17
2022-11-13T15:58:33.510Z,100882.50
2022-11-13T16:01:58.079Z,100889.09
2022-11-13T16:05:15.786Z,100892.47
2022-11-13T16:08:29.497Z,100882.48
2022-11-13T16:11:53.110Z,100894.00
2022-11-13T16:15:16.867Z,100887.52
2022-11-13T16:18:42.751Z,100888.24
2022-11-13T16:22:06.024Z,100889.05
2022-11-13T16:25:33.216Z,100891.08
2022-11-13T16:29:13.236Z,100889.55
2022-11-13T16:32:29.305Z,100883.84
2022-11-13T16:35:53.748Z,100895.66
2022-11-13T16:39:18.633Z,100896.09
2022-11-13T16:42:41.968Z,100897.96
2022-11-13T16:46:06.086Z,100896.59
2022-11-13T16:49:30.074Z,100903.17
2022-11-13T16:52:53.994Z,100895.98
2022-11-13T16:56:26.426Z,100900.59
2022-11-13T16:59:50.700Z,100902.25
2022-11-13T17:03:13.408Z,100895.53
2022-11-13T17:06:47.651Z,100889.16
2022-11-13T17:10:30.269Z,100892.69
2022-11-13T17:13:36.512Z,100889.59
2022-11-13T17:17:02.512Z,100895.14
2022-11-13T17:20:20.185Z,100904.40
2022-11-13T17:23:31.041Z,100905.44
2022-11-13T17:26:55.709Z,100894.29
2022-11-13T17:30:21.159Z,100890.33
2022-11-13T17:33:39.818Z,100902.27
2022-11-13T17:37:04.831Z,100903.23
2022-11-13T17:40:28.712Z,100912.44
2022-11-13T17:43:59.879Z,100905.41
2022-11-13T17:47:19.475Z,100915.67
2022-11-13T17:50:43.430Z,100917.95
2022-11-13T17:54:07.564Z,100922.90
2022-11-13T17:57:30.431Z,100925.92
2022-11-13T18:00:55.274Z,100928.03
2022-11-13T18:04:19.202Z,100926.67
2022-11-13T18:07:43.210Z,100927.95
2022-11-13T18:11:07.330Z,100929.61
2022-11-13T18:14:26.019Z,100931.02
2022-11-13T18:17:44.218Z,100930.33
2022-11-13T18:21:13.907Z,100930.62
2022-11-13T18:24:31.541Z,100930.33
2022-11-13T18:27:55.346Z,100928.87
2022-11-13T18:31:25.340Z,100936.89
2022-11-13T18:34:47.963Z,100937.80
2022-11-13T18:38:12.155Z,100932.61
2022-11-13T18:41:37.639Z,100930.63
2022-11-13T18:45:05.715Z,100933.95
2022-11-13T18:48:25.896Z,100925.88
2022-11-13T18:51:49.174Z,100936.28
2022-11-13T18:55:11.344Z,100938.77
2022-11-13T18:58:33.752Z,100929.66
2022-11-13T19:01:58.118Z,100930.30
2022-11-13T19:05:23.513Z,100929.00
2022-11-13T19:08:40.902Z,100926.09
2022-11-13T19:11:46.021Z,100928.70
2022-11-13T19:14:57.631Z,100928.36
2022-11-13T19:18:15.189Z,100932.41
2022-11-13T19:21:35.559Z,100932.51
2022-11-13T19:24:58.871Z,100923.75
2022-11-13T19:28:22.130Z,100919.58
2022-11-13T19:31:47.030Z,100937.58
2022-11-13T19:35:10.346Z,100935.88
2022-11-13T19:38:35.238Z,100935.83
2022-11-13T19:41:59.620Z,100927.98
2022-11-13T19:45:23.392Z,100930.69
2022-11-13T19:48:47.512Z,100924.32
2022-11-13T19:52:11.734Z,100921.43
2022-11-13T19:55:35.545Z,100922.28
2022-11-13T19:59:00.093Z,100920.51
2022-11-13T20:02:18.785Z,100918.86
2022-11-13T20:05:41.099Z,100915.16
2022-11-13T20:09:04.728Z,100913.83
2022-11-13T20:12:30.089Z,100915.13
2022-11-13T20:15:54.500Z,100918.94
2022-11-13T20:19:19.264Z,100914.58
2022-11-13T20:22:43.731Z,100914.69
2022-11-13T20:26:12.956Z,100908.45
2022-11-13T20:29:38.781Z,100909.59
2022-11-13T20:32:54.927Z,100904.92
2022-11-13T20:36:18.424Z,100900.65
2022-11-13T20:39:45.639Z,100912.82
2022-11-13T20:43:03.339Z,100911.77
2022-11-13T20:46:29.515Z,100904.47
2022-11-13T20:49:52.101Z,100911.08
2022-11-13T20:53:16.226Z,100902.77
2022-11-13T20:56:40.549Z,100909.83
2022-11-13T21:00:05.757Z,100912.47
2022-11-13T21:03:29.049Z,100908.03
2022-11-13T21:06:54.101Z,100909.17
2022-11-13T21:10:17.437Z,100910.84
2022-11-13T21:13:42.119Z,100913.25
2022-11-13T21:17:05.745Z,100911.45
2022-11-13T21:20:29.214Z,100918.08
2022-11-13T21:23:53.008Z,100925.47
2022-11-13T21:27:16.432Z,100920.75
2022-11-13T21:30:34.089Z,100918.45
2022-11-13T21:33:59.533Z,100918.17
2022-11-13T21:37:22.964Z,100910.73
2022-11-13T21:40:47.117Z,100913.47
2022-11-13T21:44:17.676Z,100913.17
2022-11-13T21:47:41.946Z,100912.73
2022-11-13T21:51:05.720Z,100910.50
2022-11-13T21:54:30.091Z,100908.95
2022-11-13T21:57:56.496Z,100907.01
2022-11-13T22:01:20.310Z,100910.45
2022-11-13T22:04:44.802Z,100905.73
2022-11-13T22:08:09.143Z,100908.02
2022-11-13T22:11:32.576Z,100908.38
2022-11-13T22:14:49.970Z,100909.81
2022-11-13T22:18:13.125Z,100908.88
2022-11-13T22:21:38.303Z,100913.23
2022-11-13T22:24:55.433Z,100914.19
2022-11-13T22:28:11.819Z,100913.77
2022-11-13T22:31:41.458Z,100921.50
2022-11-13T22:35:04.363Z,100913.34
2022-11-13T22:38:28.475Z,100914.39
2022-11-13T22:41:52.789Z,100917.09
2022-11-13T22:45:23.556Z,100923.48
2022-11-13T22:48:42.058Z,100925.94
2022-11-13T22:52:06.745Z,100928.39
2022-11-13T22:55:29.912Z,100934.73
2022-11-13T22:58:53.214Z,100919.72
2022-11-13T23:02:16.242Z,100921.63
2022-11-13T23:05:39.355Z,100917.11
2022-11-13T23:09:03.160Z,100916.33
2022-11-13T23:12:29.432Z,100909.88
2022-11-13T23:15:53.161Z,100916.52
2022-11-13T23:19:17.510Z,100922.28
2022-11-13T23:22:41.369Z,100916.84
2022-11-13T23:26:05.588Z,100919.98
2022-11-13T23:29:29.050Z,100925.27
2022-11-13T23:32:46.321Z,100923.80
2022-11-13T23:36:10.565Z,100934.45
2022-11-13T23:39:34.191Z,100933.61
2022-11-13T23:42:59.032Z,100929.98
2022-11-13T23:46:23.422Z,100939.06
2022-11-13T23:49:47.449Z,100936.95
2022-11-13T23:53:11.345Z,100933.35
2022-11-13T23:56:36.016Z,100928.63
